createdAt,value
2022-12-01T00:03:02.780Z,8.40
2022-12-01T00:08:05.939Z,7.20
2022-12-01T00:13:08.712Z,7.70
2022-12-01T00:18:11.476Z,9.70
2022-12-01T00:23:14.194Z,9.70
2022-12-01T00:28:16.937Z,7.30
2022-12-01T00:33:19.682Z,11.70
2022-12-01T00:38:22.463Z,9.10
2022-12-01T00:43:25.268Z,8.70
2022-12-01T00:48:28.257Z,7.00
2022-12-01T00:53:31.551Z,8.40
2022-12-01T01:03:36.913Z,7.20
2022-12-01T01:08:40.737Z,7.90
2022-12-01T01:13:43.642Z,7.70
2022-12-01T01:18:47.387Z,7.80
2022-12-01T01:23:51.591Z,8.80
2022-12-01T01:28:57.231Z,7.90
2022-12-01T01:34:00.040Z,8.70
2022-12-01T01:39:03.067Z,6.60
2022-12-01T01:44:44.356Z,7.10
2022-12-01T01:49:47.843Z,8.30
2022-12-01T01:54:54.798Z,7.00
2022-12-01T02:00:07.525Z,7.10
2022-12-01T02:05:17.349Z,6.30
2022-12-01T02:10:22.906Z,6.10
2022-12-01T02:15:43.813Z,7.00
2022-12-01T02:21:09.088Z,7.00
2022-12-01T02:26:39.750Z,5.70
2022-12-01T02:31:57.343Z,7.00
2022-12-01T02:37:08.663Z,6.40
2022-12-01T02:42:40.268Z,6.40
2022-12-01T02:47:46.013Z,6.00
2022-12-01T02:52:49.635Z,5.10
2022-12-01T02:57:52.374Z,5.30
2022-12-01T03:03:20.138Z,5.70
2022-12-01T03:08:29.363Z,4.90
2022-12-01T03:13:46.196Z,5.80
2022-12-01T03:19:07.199Z,5.80
2022-12-01T03:24:24.260Z,5.20
2022-12-01T03:29:38.733Z,4.90
2022-12-01T03:35:01.434Z,5.20
2022-12-01T03:40:10.293Z,6.10
2022-12-01T03:45:20.133Z,6.50
2022-12-01T03:50:32.342Z,9.40
2022-12-01T03:55:41.601Z,5.90
2022-12-01T04:00:49.911Z,8.90
2022-12-01T04:05:52.909Z,8.50
2022-12-01T04:10:55.626Z,6.90
2022-12-01T04:15:58.333Z,10.50
2022-12-01T04:21:01.058Z,7.60
2022-12-01T04:26:05.072Z,13.10
2022-12-01T04:31:07.909Z,8.80
2022-12-01T04:36:10.973Z,8.10
2022-12-01T04:41:14.512Z,8.60
2022-12-01T04:46:17.297Z,10.90
2022-12-01T04:51:21.383Z,10.80
2022-12-01T04:56:24.235Z,10.50
2022-12-01T05:01:27.661Z,9.00
2022-12-01T05:06:30.473Z,10.30
2022-12-01T05:11:33.615Z,8.30
2022-12-01T05:16:36.528Z,12.30
2022-12-01T05:21:40.527Z,19.60
2022-12-01T05:26:44.121Z,19.80
2022-12-01T05:31:47.259Z,14.90
2022-12-01T05:41:53.889Z,14.10
2022-12-01T05:46:56.630Z,12.40
2022-12-01T05:51:59.368Z,16.20
2022-12-01T05:57:02.169Z,13.10
2022-12-01T06:02:05.020Z,13.00
2022-12-01T06:07:07.771Z,13.40
2022-12-01T06:12:10.516Z,12.60
2022-12-01T06:17:13.254Z,12.60
2022-12-01T06:22:16.088Z,15.40
2022-12-01T06:27:18.828Z,13.50
2022-12-01T06:32:21.701Z,15.70
2022-12-01T06:37:24.513Z,14.10
2022-12-01T06:42:29.878Z,15.20
2022-12-01T06:47:32.642Z,14.50
2022-12-01T06:52:36.615Z,16.50
2022-12-01T06:57:39.580Z,20.40
2022-12-01T07:02:42.597Z,15.40
2022-12-01T07:07:45.599Z,17.10
2022-12-01T07:12:48.410Z,13.90
2022-12-01T07:17:51.170Z,19.60
2022-12-01T07:22:54.471Z,20.20
2022-12-01T07:33:01.314Z,15.40
2022-12-01T07:38:05.117Z,16.30
2022-12-01T07:43:07.993Z,13.90
2022-12-01T07:48:10.889Z,18.80
2022-12-01T07:53:13.679Z,24.40
2022-12-01T07:58:17.277Z,47.20
2022-12-01T08:03:20.683Z,25.40
2022-12-01T08:08:23.560Z,22.30
2022-12-01T08:13:26.446Z,27.10
2022-12-01T08:18:29.178Z,20.60
2022-12-01T08:23:32.391Z,22.00
2022-12-01T08:33:39.163Z,54.60
2022-12-01T08:38:46.070Z,25.20
2022-12-01T08:43:57.788Z,17.70
2022-12-01T08:49:02.726Z,18.70
2022-12-01T08:54:05.576Z,15.50
2022-12-01T08:59:09.760Z,18.20
2022-12-01T09:04:15.935Z,18.40
2022-12-01T09:09:22.627Z,19.50
2022-12-01T09:14:25.380Z,14.60
2022-12-01T09:19:28.825Z,16.20
2022-12-01T09:24:31.833Z,13.50
2022-12-01T09:29:35.045Z,17.00
2022-12-01T09:34:37.796Z,16.30
2022-12-01T09:39:40.644Z,14.40
2022-12-01T09:44:49.926Z,16.10
2022-12-01T09:50:17.001Z,17.30
2022-12-01T09:55:23.460Z,23.60
2022-12-01T10:00:30.465Z,16.20
2022-12-01T10:06:24.563Z,12.60
2022-12-01T10:11:26.000Z,18.10
2022-12-01T10:16:46.585Z,21.10
2022-12-01T10:21:55.484Z,19.90
2022-12-01T10:27:31.748Z,18.50
2022-12-01T10:32:55.372Z,19.80
2022-12-01T10:43:13.144Z,17.60
2022-12-01T10:48:22.344Z,14.30
2022-12-01T10:53:33.792Z,16.80
2022-12-01T10:58:58.401Z,13.60
2022-12-01T11:04:01.875Z,19.50
2022-12-01T11:09:20.260Z,18.30
2022-12-01T11:14:53.412Z,16.60
2022-12-01T11:19:56.698Z,17.00
2022-12-01T11:30:20.242Z,15.50
2022-12-01T11:35:26.163Z,18.60
2022-12-01T11:40:36.440Z,15.40
2022-12-01T11:45:40.540Z,19.90
2022-12-01T11:50:59.802Z,15.10
2022-12-01T11:56:30.191Z,15.20
2022-12-01T12:01:57.022Z,16.90
2022-12-01T12:07:21.216Z,16.20
2022-12-01T12:12:49.710Z,14.60
2022-12-01T12:18:14.167Z,14.80
2022-12-01T12:23:31.194Z,16.40
2022-12-01T12:28:36.986Z,15.10
2022-12-01T12:33:55.803Z,14.80
2022-12-01T12:39:03.400Z,17.00
2022-12-01T12:44:31.058Z,13.50
2022-12-01T12:49:39.667Z,12.70
2022-12-01T12:54:48.558Z,16.00
2022-12-01T12:59:59.650Z,11.90
2022-12-01T13:05:38.922Z,11.80
2022-12-01T13:10:48.529Z,13.80
2022-12-01T13:15:54.741Z,12.90
2022-12-01T13:20:58.384Z,12.40
2022-12-01T13:26:05.449Z,16.20
2022-12-01T13:31:11.770Z,14.10
2022-12-01T13:36:45.188Z,12.00
2022-12-01T13:41:39.653Z,23.90
2022-12-01T13:46:42.837Z,14.50
2022-12-01T13:52:22.847Z,31.30
2022-12-01T13:57:28.434Z,31.90
2022-12-01T14:02:33.696Z,34.10
2022-12-01T14:07:38.352Z,31.50
2022-12-01T14:12:45.595Z,26.40
2022-12-01T14:17:59.379Z,23.30
2022-12-01T14:23:04.175Z,21.00
2022-12-01T14:28:15.943Z,28.00
2022-12-01T14:33:57.907Z,23.70
2022-12-01T14:39:00.609Z,29.10
2022-12-01T14:44:12.447Z,17.50
2022-12-01T14:49:40.819Z,15.60
2022-12-01T14:54:46.966Z,17.40
2022-12-01T15:00:04.845Z,15.00
2022-12-01T15:05:18.750Z,19.90
2022-12-01T15:10:29.237Z,16.90
2022-12-01T15:15:31.994Z,18.30
2022-12-01T15:20:41.321Z,21.50
2022-12-01T15:25:47.858Z,18.90
2022-12-01T15:30:53.622Z,22.00
2022-12-01T15:35:57.754Z,12.40
2022-12-01T15:46:30.989Z,15.90
2022-12-01T15:51:42.282Z,14.00
2022-12-01T15:56:51.916Z,18.30
2022-12-01T16:01:54.831Z,23.20
2022-12-01T16:07:05.751Z,32.00
2022-12-01T16:12:14.611Z,23.50
2022-12-01T16:17:17.565Z,22.90
2022-12-01T16:22:22.391Z,30.00
2022-12-01T16:27:28.254Z,25.70
2022-12-01T16:32:35.538Z,23.30
2022-12-01T16:37:38.251Z,26.80
2022-12-01T16:42:41.037Z,24.70
2022-12-01T16:47:45.741Z,19.20
2022-12-01T16:52:52.025Z,16.40
2022-12-01T16:57:55.507Z,14.80
2022-12-01T17:02:58.658Z,18.90
2022-12-01T17:08:02.001Z,17.90
2022-12-01T17:13:04.862Z,18.30
2022-12-01T17:18:07.588Z,13.40
2022-12-01T17:23:10.648Z,19.90
2022-12-01T17:28:13.381Z,21.20
2022-12-01T17:33:16.216Z,21.10
2022-12-01T17:38:18.968Z,19.90
2022-12-01T17:43:23.258Z,45.00
2022-12-01T17:48:26.236Z,25.10
2022-12-01T17:53:29.012Z,18.30
2022-12-01T17:58:43.408Z,17.00
2022-12-01T18:03:48.646Z,17.40
2022-12-01T18:08:52.067Z,19.50
2022-12-01T18:13:54.853Z,16.60
2022-12-01T18:18:59.198Z,19.40
2022-12-01T18:24:04.166Z,16.80
2022-12-01T18:29:11.976Z,12.90
2022-12-01T18:34:14.760Z,15.70
2022-12-01T18:39:18.094Z,14.10
2022-12-01T18:49:23.909Z,16.40
2022-12-01T18:54:27.248Z,12.80
2022-12-01T18:59:30.576Z,16.40
2022-12-01T19:04:33.650Z,17.30
2022-12-01T19:09:36.441Z,18.50
2022-12-01T19:14:39.167Z,13.80
2022-12-01T19:19:41.886Z,14.20
2022-12-01T19:24:49.832Z,18.20
2022-12-01T19:29:54.081Z,16.50
2022-12-01T19:34:57.260Z,13.10
2022-12-01T19:39:59.942Z,14.20
2022-12-01T19:45:02.719Z,12.70
2022-12-01T19:50:06.293Z,17.70
2022-12-01T19:55:09.353Z,19.70
2022-12-01T20:00:12.951Z,18.40
2022-12-01T20:05:15.910Z,19.90
2022-12-01T20:10:20.443Z,20.40
2022-12-01T20:15:23.219Z,19.60
2022-12-01T20:20:26.044Z,18.30
2022-12-01T20:25:28.848Z,20.40
2022-12-01T20:30:31.646Z,16.80
2022-12-01T20:35:34.553Z,19.10
2022-12-01T20:40:37.282Z,16.90
2022-12-01T20:45:40.171Z,16.20
2022-12-01T20:50:43.046Z,16.90
2022-12-01T20:55:45.955Z,18.50
2022-12-01T21:00:49.251Z,17.20
2022-12-01T21:10:54.711Z,12.30
2022-12-01T21:16:03.602Z,10.70
2022-12-01T21:21:30.317Z,15.80
2022-12-01T21:26:33.210Z,15.40
2022-12-01T21:31:36.982Z,14.50
2022-12-01T21:36:39.731Z,13.60
2022-12-01T21:41:42.523Z,15.40
2022-12-01T21:46:46.406Z,15.80
2022-12-01T21:51:52.105Z,12.60
2022-12-01T21:56:58.068Z,16.10
2022-12-01T22:02:08.013Z,14.60
2022-12-01T22:07:15.035Z,14.30
2022-12-01T22:12:28.747Z,17.80
2022-12-01T22:17:31.496Z,16.30
2022-12-01T22:22:36.621Z,12.10
2022-12-01T22:27:39.740Z,11.00
2022-12-01T22:33:03.778Z,13.20
2022-12-01T22:38:06.484Z,12.50
2022-12-01T22:43:18.267Z,12.30
2022-12-01T22:48:27.268Z,14.50
2022-12-01T22:53:31.246Z,14.30
2022-12-01T22:58:41.125Z,14.00
2022-12-01T23:03:43.940Z,12.40
2022-12-01T23:08:46.697Z,19.60
2022-12-01T23:13:49.411Z,17.60
2022-12-01T23:18:52.400Z,14.90
2022-12-01T23:23:55.260Z,16.40
2022-12-01T23:28:59.322Z,13.10
2022-12-01T23:34:02.063Z,15.20
2022-12-01T23:39:11.813Z,13.90
2022-12-01T23:44:24.122Z,17.00
2022-12-01T23:49:33.259Z,16.20
2022-12-01T23:54:38.327Z,14.20
2022-12-01T23:59:41.111Z,11.80
